sensor_id;sensor_type;location;lat;lon;timestamp;temperature;humidity
70368;DHT22;57789;53.868;10.728;2022-10-22T00:00:39;12.90;99.90
70368;DHT22;57789;53.868;10.728;2022-10-22T00:03:05;12.90;99.90
70368;DHT22;57789;53.868;10.728;2022-10-22T00:05:30;13.00;99.90
70368;DHT22;57789;53.868;10.728;2022-10-22T00:07:56;13.00;99.90
70368;DHT22;57789;53.868;10.728;2022-10-22T00:10:22;13.10;99.90
70368;DHT22;57789;53.868;10.728;2022-10-22T00:12:47;13.00;99.90
70368;DHT22;57789;53.868;10.728;2022-10-22T00:15:13;13.10;99.90
70368;DHT22;57789;53.868;10.728;2022-10-22T00:17:38;13.10;99.90
70368;DHT22;57789;53.868;10.728;2022-10-22T00:20:05;13.20;99.90
70368;DHT22;57789;53.868;10.728;2022-10-22T00:22:30;13.20;99.90
70368;DHT22;57789;53.868;10.728;2022-10-22T00:24:56;13.20;99.90
70368;DHT22;57789;53.868;10.728;2022-10-22T00:27:22;13.20;99.90
70368;DHT22;57789;53.868;10.728;2022-10-22T00:29:47;13.20;99.90
70368;DHT22;57789;53.868;10.728;2022-10-22T00:32:13;13.20;99.90
70368;DHT22;57789;53.868;10.728;2022-10-22T00:34:39;13.20;99.90
70368;DHT22;57789;53.868;10.728;2022-10-22T00:37:05;13.30;99.90
70368;DHT22;57789;53.868;10.728;2022-10-22T00:39:30;13.20;99.90
70368;DHT22;57789;53.868;10.728;2022-10-22T00:41:57;13.30;99.90
70368;DHT22;57789;53.868;10.728;2022-10-22T00:47:30;13.40;99.90
70368;DHT22;57789;53.868;10.728;2022-10-22T00:49:56;13.30;99.90
70368;DHT22;57789;53.868;10.728;2022-10-22T00:52:23;13.30;99.90
70368;DHT22;57789;53.868;10.728;2022-10-22T00:54:49;13.30;99.90
70368;DHT22;57789;53.868;10.728;2022-10-22T00:57:17;13.30;99.90
70368;DHT22;57789;53.868;10.728;2022-10-22T00:59:44;13.30;99.90
70368;DHT22;57789;53.868;10.728;2022-10-22T01:02:10;13.30;99.90
70368;DHT22;57789;53.868;10.728;2022-10-22T01:04:35;13.30;99.90
70368;DHT22;57789;53.868;10.728;2022-10-22T01:07:01;13.30;99.90
70368;DHT22;57789;53.868;10.728;2022-10-22T01:17:40;13.40;99.90
70368;DHT22;57789;53.868;10.728;2022-10-22T01:23:48;13.50;99.90
70368;DHT22;57789;53.868;10.728;2022-10-22T01:29:17;13.40;99.90
70368;DHT22;57789;53.868;10.728;2022-10-22T01:31:49;13.40;99.90
70368;DHT22;57789;53.868;10.728;2022-10-22T01:34:17;13.50;99.90
70368;DHT22;57789;53.868;10.728;2022-10-22T01:36:44;13.50;99.90
70368;DHT22;57789;53.868;10.728;2022-10-22T01:39:11;13.50;99.90
70368;DHT22;57789;53.868;10.728;2022-10-22T01:41:38;13.50;99.90
70368;DHT22;57789;53.868;10.728;2022-10-22T01:44:04;13.60;99.90
70368;DHT22;57789;53.868;10.728;2022-10-22T01:46:30;13.60;99.90
70368;DHT22;57789;53.868;10.728;2022-10-22T01:52:50;13.40;99.90
70368;DHT22;57789;53.868;10.728;2022-10-22T01:57:48;13.40;99.90
70368;DHT22;57789;53.868;10.728;2022-10-22T02:00:18;13.50;99.90
70368;DHT22;57789;53.868;10.728;2022-10-22T02:03:18;13.50;99.90
70368;DHT22;57789;53.868;10.728;2022-10-22T02:05:52;13.40;99.90
70368;DHT22;57789;53.868;10.728;2022-10-22T02:08:28;13.40;99.90
70368;DHT22;57789;53.868;10.728;2022-10-22T02:10:55;13.40;99.90
70368;DHT22;57789;53.868;10.728;2022-10-22T02:13:36;13.50;99.90
70368;DHT22;57789;53.868;10.728;2022-10-22T02:16:07;13.50;99.90
70368;DHT22;57789;53.868;10.728;2022-10-22T02:18:34;13.50;99.90
70368;DHT22;57789;53.868;10.728;2022-10-22T02:21:01;13.50;99.90
70368;DHT22;57789;53.868;10.728;2022-10-22T02:23:28;13.50;99.90
70368;DHT22;57789;53.868;10.728;2022-10-22T02:26:14;13.50;99.90
70368;DHT22;57789;53.868;10.728;2022-10-22T02:31:25;13.50;99.90
70368;DHT22;57789;53.868;10.728;2022-10-22T02:33:54;13.60;99.90
70368;DHT22;57789;53.868;10.728;2022-10-22T02:36:21;13.60;99.90
70368;DHT22;57789;53.868;10.728;2022-10-22T02:38:50;13.60;99.90
70368;DHT22;57789;53.868;10.728;2022-10-22T02:41:17;13.50;99.90
70368;DHT22;57789;53.868;10.728;2022-10-22T02:43:52;13.60;99.90
70368;DHT22;57789;53.868;10.728;2022-10-22T02:46:18;13.60;99.90
70368;DHT22;57789;53.868;10.728;2022-10-22T02:48:43;13.60;99.90
70368;DHT22;57789;53.868;10.728;2022-10-22T02:51:09;13.70;99.90
70368;DHT22;57789;53.868;10.728;2022-10-22T02:53:35;13.70;99.90
70368;DHT22;57789;53.868;10.728;2022-10-22T02:56:00;13.70;99.90
70368;DHT22;57789;53.868;10.728;2022-10-22T02:58:26;13.70;99.90
70368;DHT22;57789;53.868;10.728;2022-10-22T03:00:52;13.70;99.90
70368;DHT22;57789;53.868;10.728;2022-10-22T03:03:17;13.70;99.90
70368;DHT22;57789;53.868;10.728;2022-10-22T03:05:43;13.70;99.90
70368;DHT22;57789;53.868;10.728;2022-10-22T03:08:08;13.70;99.90
70368;DHT22;57789;53.868;10.728;2022-10-22T03:10:34;13.70;99.90
70368;DHT22;57789;53.868;10.728;2022-10-22T03:13:00;13.60;99.90
70368;DHT22;57789;53.868;10.728;2022-10-22T03:15:26;13.60;99.90
70368;DHT22;57789;53.868;10.728;2022-10-22T03:17:52;13.70;99.90
70368;DHT22;57789;53.868;10.728;2022-10-22T03:20:17;13.70;99.90
70368;DHT22;57789;53.868;10.728;2022-10-22T03:22:43;13.70;99.90
70368;DHT22;57789;53.868;10.728;2022-10-22T03:25:16;13.80;99.90
70368;DHT22;57789;53.868;10.728;2022-10-22T03:27:44;13.80;99.90
70368;DHT22;57789;53.868;10.728;2022-10-22T03:30:10;13.80;99.90
70368;DHT22;57789;53.868;10.728;2022-10-22T03:32:36;13.80;99.90
70368;DHT22;57789;53.868;10.728;2022-10-22T03:35:02;13.80;99.90
70368;DHT22;57789;53.868;10.728;2022-10-22T03:37:28;13.80;99.90
70368;DHT22;57789;53.868;10.728;2022-10-22T03:39:54;13.80;99.90
70368;DHT22;57789;53.868;10.728;2022-10-22T03:42:20;13.80;99.90
70368;DHT22;57789;53.868;10.728;2022-10-22T03:44:46;13.80;99.90
70368;DHT22;57789;53.868;10.728;2022-10-22T03:47:12;13.70;99.90
70368;DHT22;57789;53.868;10.728;2022-10-22T03:49:41;13.80;99.90
70368;DHT22;57789;53.868;10.728;2022-10-22T03:52:08;13.80;99.90
70368;DHT22;57789;53.868;10.728;2022-10-22T03:54:34;13.70;99.90
70368;DHT22;57789;53.868;10.728;2022-10-22T03:57:00;13.60;99.90
70368;DHT22;57789;53.868;10.728;2022-10-22T03:59:26;13.60;99.90
70368;DHT22;57789;53.868;10.728;2022-10-22T04:01:51;13.60;99.90
70368;DHT22;57789;53.868;10.728;2022-10-22T04:04:17;13.60;99.90
70368;DHT22;57789;53.868;10.728;2022-10-22T04:06:43;13.50;99.90
70368;DHT22;57789;53.868;10.728;2022-10-22T04:09:08;13.60;99.90
70368;DHT22;57789;53.868;10.728;2022-10-22T04:11:34;13.60;99.90
70368;DHT22;57789;53.868;10.728;2022-10-22T04:13:59;13.60;99.90
70368;DHT22;57789;53.868;10.728;2022-10-22T04:16:25;13.60;99.90
70368;DHT22;57789;53.868;10.728;2022-10-22T04:18:55;13.50;99.90
70368;DHT22;57789;53.868;10.728;2022-10-22T04:21:22;13.40;99.90
70368;DHT22;57789;53.868;10.728;2022-10-22T04:23:50;13.40;99.90
70368;DHT22;57789;53.868;10.728;2022-10-22T04:26:17;13.40;99.90
70368;DHT22;57789;53.868;10.728;2022-10-22T04:28:43;13.40;99.90
70368;DHT22;57789;53.868;10.728;2022-10-22T04:31:11;13.20;99.90
70368;DHT22;57789;53.868;10.728;2022-10-22T04:33:38;13.20;99.90
70368;DHT22;57789;53.868;10.728;2022-10-22T04:36:14;13.10;99.90
70368;DHT22;57789;53.868;10.728;2022-10-22T04:38:41;13.10;99.90
70368;DHT22;57789;53.868;10.728;2022-10-22T04:41:16;13.10;99.90
70368;DHT22;57789;53.868;10.728;2022-10-22T04:43:42;13.10;99.90
70368;DHT22;57789;53.868;10.728;2022-10-22T04:46:08;13.10;99.90
70368;DHT22;57789;53.868;10.728;2022-10-22T04:48:35;13.00;99.90
70368;DHT22;57789;53.868;10.728;2022-10-22T04:51:02;13.10;99.90
70368;DHT22;57789;53.868;10.728;2022-10-22T04:53:28;13.00;99.90
70368;DHT22;57789;53.868;10.728;2022-10-22T04:55:53;12.90;99.90
70368;DHT22;57789;53.868;10.728;2022-10-22T04:58:19;12.80;99.90
70368;DHT22;57789;53.868;10.728;2022-10-22T05:00:45;12.80;99.90
70368;DHT22;57789;53.868;10.728;2022-10-22T05:03:11;12.70;99.90
70368;DHT22;57789;53.868;10.728;2022-10-22T05:05:36;12.70;99.90
70368;DHT22;57789;53.868;10.728;2022-10-22T05:08:04;12.60;99.90
70368;DHT22;57789;53.868;10.728;2022-10-22T05:10:30;12.60;99.90
70368;DHT22;57789;53.868;10.728;2022-10-22T05:12:56;12.50;99.90
70368;DHT22;57789;53.868;10.728;2022-10-22T05:15:21;12.50;99.90
70368;DHT22;57789;53.868;10.728;2022-10-22T05:17:47;12.50;99.90
70368;DHT22;57789;53.868;10.728;2022-10-22T05:20:12;12.50;99.90
70368;DHT22;57789;53.868;10.728;2022-10-22T05:22:38;12.50;99.90
70368;DHT22;57789;53.868;10.728;2022-10-22T05:25:04;12.50;99.90
70368;DHT22;57789;53.868;10.728;2022-10-22T05:27:30;12.60;99.90
70368;DHT22;57789;53.868;10.728;2022-10-22T05:29:55;12.60;99.90
70368;DHT22;57789;53.868;10.728;2022-10-22T05:32:21;12.60;99.90
70368;DHT22;57789;53.868;10.728;2022-10-22T05:34:47;12.70;99.90
70368;DHT22;57789;53.868;10.728;2022-10-22T05:37:13;12.70;99.90
70368;DHT22;57789;53.868;10.728;2022-10-22T05:39:38;12.80;99.90
70368;DHT22;57789;53.868;10.728;2022-10-22T05:42:05;12.80;99.90
70368;DHT22;57789;53.868;10.728;2022-10-22T05:44:31;12.80;99.90
70368;DHT22;57789;53.868;10.728;2022-10-22T05:46:57;12.80;99.90
70368;DHT22;57789;53.868;10.728;2022-10-22T05:49:22;12.80;99.90
70368;DHT22;57789;53.868;10.728;2022-10-22T05:51:48;12.70;99.90
70368;DHT22;57789;53.868;10.728;2022-10-22T05:54:19;12.70;99.90
70368;DHT22;57789;53.868;10.728;2022-10-22T05:56:46;12.70;99.90
70368;DHT22;57789;53.868;10.728;2022-10-22T05:59:12;12.70;99.90
70368;DHT22;57789;53.868;10.728;2022-10-22T06:01:39;12.80;99.90
70368;DHT22;57789;53.868;10.728;2022-10-22T06:04:07;12.70;99.90
70368;DHT22;57789;53.868;10.728;2022-10-22T06:06:44;12.70;99.90
70368;DHT22;57789;53.868;10.728;2022-10-22T06:09:14;12.70;99.90
70368;DHT22;57789;53.868;10.728;2022-10-22T06:11:41;12.80;99.90
70368;DHT22;57789;53.868;10.728;2022-10-22T06:14:09;12.80;99.90
70368;DHT22;57789;53.868;10.728;2022-10-22T06:16:35;12.90;99.90
70368;DHT22;57789;53.868;10.728;2022-10-22T06:19:01;12.90;99.90
70368;DHT22;57789;53.868;10.728;2022-10-22T06:21:27;12.90;99.90
70368;DHT22;57789;53.868;10.728;2022-10-22T06:23:55;12.90;99.90
70368;DHT22;57789;53.868;10.728;2022-10-22T06:26:21;13.00;99.90
70368;DHT22;57789;53.868;10.728;2022-10-22T06:28:47;13.00;99.90
70368;DHT22;57789;53.868;10.728;2022-10-22T06:31:13;13.00;99.90
70368;DHT22;57789;53.868;10.728;2022-10-22T06:33:39;13.00;99.90
70368;DHT22;57789;53.868;10.728;2022-10-22T06:36:17;13.00;99.90
70368;DHT22;57789;53.868;10.728;2022-10-22T06:38:42;13.10;99.90
70368;DHT22;57789;53.868;10.728;2022-10-22T06:41:14;13.10;99.90
70368;DHT22;57789;53.868;10.728;2022-10-22T06:43:41;13.20;99.90
70368;DHT22;57789;53.868;10.728;2022-10-22T06:46:09;13.20;99.90
70368;DHT22;57789;53.868;10.728;2022-10-22T06:48:36;13.10;99.90
70368;DHT22;57789;53.868;10.728;2022-10-22T06:51:10;13.20;99.90
70368;DHT22;57789;53.868;10.728;2022-10-22T06:53:37;13.20;99.90
70368;DHT22;57789;53.868;10.728;2022-10-22T06:56:08;13.20;99.90
70368;DHT22;57789;53.868;10.728;2022-10-22T06:58:33;13.30;99.90
70368;DHT22;57789;53.868;10.728;2022-10-22T07:01:04;13.20;99.90
70368;DHT22;57789;53.868;10.728;2022-10-22T07:03:30;13.30;99.90
70368;DHT22;57789;53.868;10.728;2022-10-22T07:06:01;13.30;99.90
70368;DHT22;57789;53.868;10.728;2022-10-22T07:08:27;13.40;99.90
70368;DHT22;57789;53.868;10.728;2022-10-22T07:10:54;13.40;99.90
70368;DHT22;57789;53.868;10.728;2022-10-22T07:13:20;13.40;99.90
70368;DHT22;57789;53.868;10.728;2022-10-22T07:15:51;13.40;99.90
70368;DHT22;57789;53.868;10.728;2022-10-22T07:18:18;13.50;99.90
70368;DHT22;57789;53.868;10.728;2022-10-22T07:20:43;13.50;99.90
70368;DHT22;57789;53.868;10.728;2022-10-22T07:23:09;13.50;99.90
70368;DHT22;57789;53.868;10.728;2022-10-22T07:25:34;13.50;99.90
70368;DHT22;57789;53.868;10.728;2022-10-22T07:28:00;13.50;99.90
70368;DHT22;57789;53.868;10.728;2022-10-22T07:30:26;13.50;99.90
70368;DHT22;57789;53.868;10.728;2022-10-22T07:32:51;13.60;99.90
70368;DHT22;57789;53.868;10.728;2022-10-22T07:35:20;13.60;99.90
70368;DHT22;57789;53.868;10.728;2022-10-22T07:37:49;13.50;99.90
70368;DHT22;57789;53.868;10.728;2022-10-22T07:40:14;13.60;99.90
70368;DHT22;57789;53.868;10.728;2022-10-22T07:42:40;13.70;99.90
70368;DHT22;57789;53.868;10.728;2022-10-22T07:45:06;13.70;99.90
70368;DHT22;57789;53.868;10.728;2022-10-22T07:47:32;13.70;99.90
70368;DHT22;57789;53.868;10.728;2022-10-22T07:49:58;13.60;99.90
70368;DHT22;57789;53.868;10.728;2022-10-22T07:52:24;13.60;99.90
70368;DHT22;57789;53.868;10.728;2022-10-22T07:54:49;13.60;99.90
70368;DHT22;57789;53.868;10.728;2022-10-22T07:57:15;13.60;99.90
70368;DHT22;57789;53.868;10.728;2022-10-22T07:59:40;13.70;99.90
70368;DHT22;57789;53.868;10.728;2022-10-22T08:02:06;13.70;99.90
70368;DHT22;57789;53.868;10.728;2022-10-22T08:04:32;13.70;99.90
70368;DHT22;57789;53.868;10.728;2022-10-22T08:06:57;13.80;99.90
70368;DHT22;57789;53.868;10.728;2022-10-22T08:09:23;13.80;99.90
70368;DHT22;57789;53.868;10.728;2022-10-22T08:11:49;13.90;99.90
70368;DHT22;57789;53.868;10.728;2022-10-22T08:14:15;13.80;99.90
70368;DHT22;57789;53.868;10.728;2022-10-22T08:16:40;13.80;99.90
70368;DHT22;57789;53.868;10.728;2022-10-22T08:19:06;13.90;99.90
70368;DHT22;57789;53.868;10.728;2022-10-22T08:21:32;13.90;99.90
70368;DHT22;57789;53.868;10.728;2022-10-22T08:23:57;13.90;99.90
70368;DHT22;57789;53.868;10.728;2022-10-22T08:26:23;13.90;99.90
70368;DHT22;57789;53.868;10.728;2022-10-22T08:28:49;13.90;99.90
70368;DHT22;57789;53.868;10.728;2022-10-22T08:31:14;14.00;99.90
70368;DHT22;57789;53.868;10.728;2022-10-22T08:33:40;14.00;99.90
70368;DHT22;57789;53.868;10.728;2022-10-22T08:36:07;14.00;99.90
70368;DHT22;57789;53.868;10.728;2022-10-22T08:38:33;14.10;99.90
70368;DHT22;57789;53.868;10.728;2022-10-22T08:41:20;14.20;99.90
70368;DHT22;57789;53.868;10.728;2022-10-22T08:44:06;14.30;99.90
70368;DHT22;57789;53.868;10.728;2022-10-22T08:49:37;14.60;99.90
70368;DHT22;57789;53.868;10.728;2022-10-22T08:52:07;14.70;99.90
70368;DHT22;57789;53.868;10.728;2022-10-22T08:57:03;14.80;99.90
70368;DHT22;57789;53.868;10.728;2022-10-22T08:59:34;14.80;99.90
70368;DHT22;57789;53.868;10.728;2022-10-22T09:02:07;14.70;99.90
70368;DHT22;57789;53.868;10.728;2022-10-22T09:04:45;14.70;99.90
70368;DHT22;57789;53.868;10.728;2022-10-22T09:07:13;14.70;99.90
70368;DHT22;57789;53.868;10.728;2022-10-22T09:09:43;14.60;99.90
70368;DHT22;57789;53.868;10.728;2022-10-22T09:12:15;14.60;99.90
70368;DHT22;57789;53.868;10.728;2022-10-22T09:14:41;14.60;99.90
70368;DHT22;57789;53.868;10.728;2022-10-22T09:19:51;14.60;99.90
70368;DHT22;57789;53.868;10.728;2022-10-22T09:25:23;14.60;99.90
70368;DHT22;57789;53.868;10.728;2022-10-22T09:27:50;14.70;99.90
70368;DHT22;57789;53.868;10.728;2022-10-22T09:30:25;14.70;99.90
70368;DHT22;57789;53.868;10.728;2022-10-22T09:33:01;14.70;99.90
70368;DHT22;57789;53.868;10.728;2022-10-22T09:35:37;14.70;99.90
70368;DHT22;57789;53.868;10.728;2022-10-22T09:38:08;14.80;99.90
70368;DHT22;57789;53.868;10.728;2022-10-22T09:40:49;14.90;99.90
70368;DHT22;57789;53.868;10.728;2022-10-22T09:43:15;14.90;99.90
70368;DHT22;57789;53.868;10.728;2022-10-22T09:45:42;15.00;99.90
70368;DHT22;57789;53.868;10.728;2022-10-22T09:48:22;15.20;99.90
70368;DHT22;57789;53.868;10.728;2022-10-22T09:51:12;15.30;99.90
70368;DHT22;57789;53.868;10.728;2022-10-22T09:53:43;15.40;99.90
70368;DHT22;57789;53.868;10.728;2022-10-22T09:56:34;15.50;99.90
70368;DHT22;57789;53.868;10.728;2022-10-22T09:59:00;15.60;99.90
70368;DHT22;57789;53.868;10.728;2022-10-22T10:01:34;15.80;99.90
70368;DHT22;57789;53.868;10.728;2022-10-22T10:04:06;15.90;99.90
70368;DHT22;57789;53.868;10.728;2022-10-22T10:06:33;16.00;99.90
70368;DHT22;57789;53.868;10.728;2022-10-22T10:08:59;16.10;99.90
70368;DHT22;57789;53.868;10.728;2022-10-22T10:11:39;16.20;99.90
70368;DHT22;57789;53.868;10.728;2022-10-22T10:14:36;16.30;99.90
70368;DHT22;57789;53.868;10.728;2022-10-22T10:17:17;16.40;99.90
70368;DHT22;57789;53.868;10.728;2022-10-22T10:20:20;16.40;99.90
70368;DHT22;57789;53.868;10.728;2022-10-22T10:23:05;16.70;99.90
70368;DHT22;57789;53.868;10.728;2022-10-22T10:28:59;17.10;99.90
70368;DHT22;57789;53.868;10.728;2022-10-22T10:34:13;17.20;99.90
70368;DHT22;57789;53.868;10.728;2022-10-22T10:40:09;17.00;99.90
70368;DHT22;57789;53.868;10.728;2022-10-22T10:42:45;17.00;99.90
70368;DHT22;57789;53.868;10.728;2022-10-22T10:50:22;16.90;99.90
70368;DHT22;57789;53.868;10.728;2022-10-22T10:58:50;17.10;99.90
70368;DHT22;57789;53.868;10.728;2022-10-22T11:07:01;17.20;99.90
70368;DHT22;57789;53.868;10.728;2022-10-22T11:09:34;17.30;99.90
70368;DHT22;57789;53.868;10.728;2022-10-22T11:12:08;17.60;99.90
70368;DHT22;57789;53.868;10.728;2022-10-22T11:14:37;17.80;99.90
70368;DHT22;57789;53.868;10.728;2022-10-22T11:17:09;18.10;99.90
70368;DHT22;57789;53.868;10.728;2022-10-22T11:22:32;18.60;99.90
70368;DHT22;57789;53.868;10.728;2022-10-22T11:27:41;18.60;99.90
70368;DHT22;57789;53.868;10.728;2022-10-22T11:30:13;18.60;99.90
70368;DHT22;57789;53.868;10.728;2022-10-22T11:32:41;18.70;99.90
70368;DHT22;57789;53.868;10.728;2022-10-22T11:35:12;18.60;99.90
70368;DHT22;57789;53.868;10.728;2022-10-22T11:37:39;18.70;99.90
70368;DHT22;57789;53.868;10.728;2022-10-22T11:40:14;18.70;99.90
70368;DHT22;57789;53.868;10.728;2022-10-22T11:42:48;18.60;99.90
70368;DHT22;57789;53.868;10.728;2022-10-22T11:47:59;18.50;99.90
70368;DHT22;57789;53.868;10.728;2022-10-22T11:50:53;18.50;99.90
70368;DHT22;57789;53.868;10.728;2022-10-22T11:53:34;18.50;99.90
70368;DHT22;57789;53.868;10.728;2022-10-22T11:56:21;18.60;99.90
70368;DHT22;57789;53.868;10.728;2022-10-22T11:58:47;18.70;99.90
70368;DHT22;57789;53.868;10.728;2022-10-22T12:01:20;18.70;99.90
70368;DHT22;57789;53.868;10.728;2022-10-22T12:06:23;18.80;99.90
70368;DHT22;57789;53.868;10.728;2022-10-22T12:08:57;18.80;99.90
70368;DHT22;57789;53.868;10.728;2022-10-22T12:11:46;18.80;99.90
70368;DHT22;57789;53.868;10.728;2022-10-22T12:14:20;18.90;99.90
70368;DHT22;57789;53.868;10.728;2022-10-22T12:19:26;19.00;99.90
70368;DHT22;57789;53.868;10.728;2022-10-22T12:24:24;19.00;99.90
70368;DHT22;57789;53.868;10.728;2022-10-22T12:26:54;19.00;99.90
70368;DHT22;57789;53.868;10.728;2022-10-22T12:29:21;19.00;99.90
70368;DHT22;57789;53.868;10.728;2022-10-22T12:31:51;19.10;99.90
70368;DHT22;57789;53.868;10.728;2022-10-22T12:34:20;19.10;99.90
70368;DHT22;57789;53.868;10.728;2022-10-22T12:36:48;19.10;99.90
70368;DHT22;57789;53.868;10.728;2022-10-22T12:39:17;19.00;99.90
70368;DHT22;57789;53.868;10.728;2022-10-22T12:41:43;19.00;99.90
70368;DHT22;57789;53.868;10.728;2022-10-22T12:44:15;18.90;99.90
70368;DHT22;57789;53.868;10.728;2022-10-22T12:46:43;19.00;99.90
70368;DHT22;57789;53.868;10.728;2022-10-22T12:49:30;19.10;99.90
70368;DHT22;57789;53.868;10.728;2022-10-22T12:52:02;19.10;99.90
70368;DHT22;57789;53.868;10.728;2022-10-22T12:54:30;19.20;99.90
70368;DHT22;57789;53.868;10.728;2022-10-22T12:56:57;19.40;99.90
70368;DHT22;57789;53.868;10.728;2022-10-22T12:59:23;19.50;99.90
70368;DHT22;57789;53.868;10.728;2022-10-22T13:01:50;19.70;99.90
70368;DHT22;57789;53.868;10.728;2022-10-22T13:06:47;19.80;99.90
70368;DHT22;57789;53.868;10.728;2022-10-22T13:12:08;20.00;99.90
70368;DHT22;57789;53.868;10.728;2022-10-22T13:14:43;20.00;99.90
70368;DHT22;57789;53.868;10.728;2022-10-22T13:19:41;20.00;99.90
70368;DHT22;57789;53.868;10.728;2022-10-22T13:22:29;20.00;99.90
70368;DHT22;57789;53.868;10.728;2022-10-22T13:24:56;20.10;99.90
70368;DHT22;57789;53.868;10.728;2022-10-22T13:27:27;20.00;99.90
70368;DHT22;57789;53.868;10.728;2022-10-22T13:29:54;19.90;99.90
70368;DHT22;57789;53.868;10.728;2022-10-22T13:32:31;19.90;99.90
70368;DHT22;57789;53.868;10.728;2022-10-22T13:35:00;19.80;99.90
70368;DHT22;57789;53.868;10.728;2022-10-22T13:37:29;19.80;99.90
70368;DHT22;57789;53.868;10.728;2022-10-22T13:39:55;19.80;99.90
70368;DHT22;57789;53.868;10.728;2022-10-22T13:42:21;19.80;99.90
70368;DHT22;57789;53.868;10.728;2022-10-22T13:44:46;19.80;99.90
70368;DHT22;57789;53.868;10.728;2022-10-22T13:47:24;19.80;99.90
70368;DHT22;57789;53.868;10.728;2022-10-22T13:49:52;19.60;99.90
70368;DHT22;57789;53.868;10.728;2022-10-22T13:52:27;19.50;99.90
70368;DHT22;57789;53.868;10.728;2022-10-22T13:54:53;19.50;99.90
70368;DHT22;57789;53.868;10.728;2022-10-22T13:57:19;19.40;99.90
70368;DHT22;57789;53.868;10.728;2022-10-22T13:59:45;19.40;99.90
70368;DHT22;57789;53.868;10.728;2022-10-22T14:02:11;19.30;99.90
70368;DHT22;57789;53.868;10.728;2022-10-22T14:04:39;19.30;99.90
70368;DHT22;57789;53.868;10.728;2022-10-22T14:07:13;19.30;99.90
70368;DHT22;57789;53.868;10.728;2022-10-22T14:09:39;19.30;99.90
70368;DHT22;57789;53.868;10.728;2022-10-22T14:12:15;19.30;99.90
70368;DHT22;57789;53.868;10.728;2022-10-22T14:14:41;19.20;99.90
70368;DHT22;57789;53.868;10.728;2022-10-22T14:17:15;19.20;99.90
70368;DHT22;57789;53.868;10.728;2022-10-22T14:19:43;19.20;99.90
70368;DHT22;57789;53.868;10.728;2022-10-22T14:22:20;19.00;99.90
70368;DHT22;57789;53.868;10.728;2022-10-22T14:24:46;19.00;99.90
70368;DHT22;57789;53.868;10.728;2022-10-22T14:27:13;18.90;99.90
70368;DHT22;57789;53.868;10.728;2022-10-22T14:29:39;18.90;99.90
70368;DHT22;57789;53.868;10.728;2022-10-22T14:32:18;18.80;99.90
70368;DHT22;57789;53.868;10.728;2022-10-22T14:34:45;18.70;99.90
70368;DHT22;57789;53.868;10.728;2022-10-22T14:37:19;18.60;99.90
70368;DHT22;57789;53.868;10.728;2022-10-22T14:39:45;18.60;99.90
70368;DHT22;57789;53.868;10.728;2022-10-22T14:42:17;18.50;99.90
70368;DHT22;57789;53.868;10.728;2022-10-22T14:44:45;18.50;99.90
70368;DHT22;57789;53.868;10.728;2022-10-22T14:47:12;18.50;99.90
70368;DHT22;57789;53.868;10.728;2022-10-22T14:49:41;18.50;99.90
70368;DHT22;57789;53.868;10.728;2022-10-22T14:52:06;18.50;99.90
70368;DHT22;57789;53.868;10.728;2022-10-22T14:54:32;18.60;99.90
70368;DHT22;57789;53.868;10.728;2022-10-22T14:57:02;18.50;99.90
70368;DHT22;57789;53.868;10.728;2022-10-22T14:59:31;18.50;99.90
70368;DHT22;57789;53.868;10.728;2022-10-22T15:01:56;18.50;99.90
70368;DHT22;57789;53.868;10.728;2022-10-22T15:04:22;18.60;99.90
70368;DHT22;57789;53.868;10.728;2022-10-22T15:06:50;18.60;99.90
70368;DHT22;57789;53.868;10.728;2022-10-22T15:09:15;18.70;99.90
70368;DHT22;57789;53.868;10.728;2022-10-22T15:11:41;18.70;99.90
70368;DHT22;57789;53.868;10.728;2022-10-22T15:14:07;18.70;99.90
70368;DHT22;57789;53.868;10.728;2022-10-22T15:16:33;18.60;99.90
70368;DHT22;57789;53.868;10.728;2022-10-22T15:18:59;18.60;99.90
70368;DHT22;57789;53.868;10.728;2022-10-22T15:21:25;18.50;99.90
70368;DHT22;57789;53.868;10.728;2022-10-22T15:23:51;18.50;99.90
70368;DHT22;57789;53.868;10.728;2022-10-22T15:26:16;18.40;99.90
70368;DHT22;57789;53.868;10.728;2022-10-22T15:28:42;18.40;99.90
70368;DHT22;57789;53.868;10.728;2022-10-22T15:31:12;18.20;99.90
70368;DHT22;57789;53.868;10.728;2022-10-22T15:33:40;18.10;99.90
70368;DHT22;57789;53.868;10.728;2022-10-22T15:36:14;18.10;99.90
70368;DHT22;57789;53.868;10.728;2022-10-22T15:38:40;18.00;99.90
70368;DHT22;57789;53.868;10.728;2022-10-22T15:41:07;17.90;99.90
70368;DHT22;57789;53.868;10.728;2022-10-22T15:43:34;17.90;99.90
70368;DHT22;57789;53.868;10.728;2022-10-22T15:46:12;17.80;99.90
70368;DHT22;57789;53.868;10.728;2022-10-22T15:48:38;17.70;99.90
70368;DHT22;57789;53.868;10.728;2022-10-22T15:51:17;17.60;99.90
70368;DHT22;57789;53.868;10.728;2022-10-22T15:53:45;17.60;99.90
70368;DHT22;57789;53.868;10.728;2022-10-22T15:56:14;17.50;99.90
70368;DHT22;57789;53.868;10.728;2022-10-22T15:58:40;17.40;99.90
70368;DHT22;57789;53.868;10.728;2022-10-22T16:01:10;17.30;99.90
70368;DHT22;57789;53.868;10.728;2022-10-22T16:03:36;17.30;99.90
70368;DHT22;57789;53.868;10.728;2022-10-22T16:06:02;17.10;99.90
70368;DHT22;57789;53.868;10.728;2022-10-22T16:08:29;17.10;99.90
70368;DHT22;57789;53.868;10.728;2022-10-22T16:10:55;17.00;99.90
70368;DHT22;57789;53.868;10.728;2022-10-22T16:13:21;16.90;99.90
70368;DHT22;57789;53.868;10.728;2022-10-22T16:15:49;16.90;99.90
70368;DHT22;57789;53.868;10.728;2022-10-22T16:18:15;16.80;99.90
70368;DHT22;57789;53.868;10.728;2022-10-22T16:20:41;16.80;99.90
70368;DHT22;57789;53.868;10.728;2022-10-22T16:23:07;16.70;99.90
70368;DHT22;57789;53.868;10.728;2022-10-22T16:25:40;16.70;99.90
70368;DHT22;57789;53.868;10.728;2022-10-22T16:28:06;16.70;99.90
70368;DHT22;57789;53.868;10.728;2022-10-22T16:30:33;16.60;99.90
70368;DHT22;57789;53.868;10.728;2022-10-22T16:33:00;16.60;99.90
70368;DHT22;57789;53.868;10.728;2022-10-22T16:35:25;16.50;99.90
70368;DHT22;57789;53.868;10.728;2022-10-22T16:37:51;16.30;99.90
70368;DHT22;57789;53.868;10.728;2022-10-22T16:40:17;16.20;99.90
70368;DHT22;57789;53.868;10.728;2022-10-22T16:42:43;16.10;99.90
70368;DHT22;57789;53.868;10.728;2022-10-22T16:45:10;16.00;99.90
70368;DHT22;57789;53.868;10.728;2022-10-22T16:47:36;15.90;99.90
70368;DHT22;57789;53.868;10.728;2022-10-22T16:50:03;15.80;99.90
70368;DHT22;57789;53.868;10.728;2022-10-22T16:52:29;15.70;99.90